Wallops Island, Virginia
Current Conditions -  °F | °C
As of 6:54 PM on Thursday 18 Dec 2014 (Local Time) from KWAL Reporting Station
Clear Clear  
Wind Chill: 29°   Ceiling: Unl
Heat Index: 35°   Visibility: 10mi
Dew Point: 25°   Wind: 7mph
Humidity: 67%   Direction: 330°NNW
Pressure: 30.1"   Gusts: NA
Location:  37.94°N, 75.46°W
Report Text: KWAL 182354Z AUTO 33006KT 10SM CLR 02/M04 A3010 RMK AO2 SLP189 T00171039 10050 20006 53007
Loading
Personal Weather Stations






























Interactive Weather Map New forecast layout! Learn more

10-Day Weather Forecast

Advertisements
Track Severe Weather on mobile